Terminal Aerodrome Forecast
Issued by NWS

Home | Current Version | Previous Version | Graphics & Text | Print | Product List | Glossary On
Versions: 1 2 3 4 5 6 7 8 9 10 11 12 13 14 15 16 17 18 19 20 21 22 23 24 25 26
000
FTUS43 KBIS 201543 AAA
TAFJMS
TAF AMD
KJMS 201543Z 2016/2112 14007KT 3/4SM BR OVC002
     FM201800 13008KT 2SM BR SCT002 OVC005
     FM210100 13007KT 3/4SM BR OVC003=

USA.gov is the U.S. government's official web portal to all federal, state and local government web resources and services.